createdAt,value
2019-01-02T00:00:07.368Z,3.00
2019-01-02T00:01:07.364Z,3.00
2019-01-02T00:02:07.325Z,3.60
2019-01-02T00:03:07.317Z,3.00
2019-01-02T00:04:07.306Z,2.80
2019-01-02T00:05:07.294Z,2.80
2019-01-02T00:06:07.321Z,2.50
2019-01-02T00:07:07.273Z,3.30
2019-01-02T00:08:07.261Z,3.10
2019-01-02T00:09:07.249Z,3.10
2019-01-02T00:10:07.239Z,2.70
2019-01-02T00:11:07.265Z,2.90
2019-01-02T00:12:07.221Z,3.00
2019-01-02T00:13:07.214Z,3.10
2019-01-02T00:14:07.194Z,3.20
2019-01-02T00:15:07.184Z,3.00
2019-01-02T00:16:07.175Z,2.90
2019-01-02T00:17:07.190Z,2.50
2019-01-02T00:18:07.152Z,2.90
2019-01-02T00:19:07.145Z,3.00
2019-01-02T00:20:07.139Z,3.10
2019-01-02T00:21:07.119Z,3.40
2019-01-02T00:22:07.145Z,3.00
2019-01-02T00:23:07.098Z,2.90
2019-01-02T00:24:07.086Z,3.40
2019-01-02T00:25:07.075Z,2.90
2019-01-02T00:26:07.097Z,3.10
2019-01-02T00:27:07.077Z,2.60
2019-01-02T00:28:07.043Z,3.40
2019-01-02T00:29:07.033Z,3.40
2019-01-02T00:30:07.021Z,2.50
2019-01-02T00:31:07.011Z,2.80
2019-01-02T00:32:07.035Z,2.40
2019-01-02T00:33:06.988Z,2.90
2019-01-02T00:34:06.977Z,3.20
2019-01-02T00:35:06.968Z,2.40
2019-01-02T00:36:06.960Z,2.10
2019-01-02T00:37:06.977Z,3.20
2019-01-02T00:38:06.935Z,3.20
2019-01-02T00:39:06.924Z,2.60
2019-01-02T00:40:06.913Z,2.90
2019-01-02T00:41:06.900Z,3.30
2019-01-02T00:42:06.917Z,3.20
2019-01-02T00:43:06.881Z,2.50
2019-01-02T00:44:06.877Z,2.20
2019-01-02T00:45:06.859Z,2.70
2019-01-02T00:46:06.865Z,2.30
2019-01-02T00:47:06.859Z,2.50
2019-01-02T00:48:06.827Z,3.00
2019-01-02T00:49:06.816Z,3.00
2019-01-02T00:50:06.822Z,3.10
2019-01-02T00:51:06.793Z,3.00
2019-01-02T00:52:06.808Z,3.00
2019-01-02T00:53:06.772Z,3.10
2019-01-02T00:54:06.761Z,3.20
2019-01-02T00:55:06.750Z,2.30
2019-01-02T00:56:06.744Z,2.80
2019-01-02T00:57:06.751Z,2.60
2019-01-02T00:58:06.718Z,2.60
2019-01-02T00:59:06.706Z,3.50
2019-01-02T01:00:06.695Z,3.90
2019-01-02T01:01:06.683Z,3.00
2019-01-02T01:02:06.721Z,2.10
2019-01-02T01:03:06.661Z,2.90
2019-01-02T01:04:06.652Z,2.70
2019-01-02T01:05:06.643Z,2.90
2019-01-02T01:06:06.633Z,2.90
2019-01-02T01:07:06.787Z,3.10
2019-01-02T01:08:06.627Z,3.20
2019-01-02T01:09:06.596Z,2.70
2019-01-02T01:10:06.590Z,3.30
2019-01-02T01:11:06.576Z,3.40
2019-01-02T01:12:06.570Z,2.80
2019-01-02T01:13:06.579Z,2.50
2019-01-02T01:14:06.546Z,3.00
2019-01-02T01:15:06.542Z,2.70
2019-01-02T01:16:06.519Z,2.90
2019-01-02T01:17:06.508Z,3.00
2019-01-02T01:18:06.523Z,2.90
2019-01-02T01:19:06.486Z,2.90
2019-01-02T01:20:06.477Z,2.90
2019-01-02T01:21:06.474Z,2.90
2019-01-02T01:22:06.458Z,2.90
2019-01-02T01:23:06.470Z,2.80
2019-01-02T01:24:06.434Z,2.80
2019-01-02T01:25:06.421Z,3.00
2019-01-02T01:26:06.411Z,2.70
2019-01-02T01:27:06.410Z,2.50
2019-01-02T01:28:06.415Z,3.10
2019-01-02T01:29:06.379Z,2.20
2019-01-02T01:30:06.417Z,3.10
2019-01-02T01:31:06.359Z,3.30
2019-01-02T01:32:06.352Z,2.50
2019-01-02T01:33:06.363Z,2.90
2019-01-02T01:34:06.323Z,3.20
2019-01-02T01:35:06.313Z,2.80
2019-01-02T01:36:06.303Z,3.10
2019-01-02T01:37:06.297Z,2.90
2019-01-02T01:38:06.308Z,2.70
2019-01-02T01:39:06.289Z,2.30
2019-01-02T01:40:06.261Z,3.30
2019-01-02T01:41:06.248Z,3.10
2019-01-02T01:42:06.237Z,2.10
2019-01-02T01:43:06.250Z,3.10
2019-01-02T01:44:06.214Z,3.20
2019-01-02T01:45:06.214Z,3.00
2019-01-02T01:46:06.192Z,2.90
2019-01-02T01:47:06.181Z,2.70
2019-01-02T01:48:06.198Z,3.90
2019-01-02T01:49:06.160Z,2.80
2019-01-02T01:50:06.157Z,2.40
2019-01-02T01:51:06.147Z,3.60
2019-01-02T01:52:06.142Z,2.50
2019-01-02T01:53:06.142Z,3.10
2019-01-02T01:54:06.106Z,3.10
2019-01-02T01:55:06.097Z,3.40
2019-01-02T01:56:06.085Z,2.60
2019-01-02T01:57:06.076Z,2.70
2019-01-02T01:58:06.099Z,2.90
2019-01-02T01:59:06.053Z,2.40
2019-01-02T02:00:06.041Z,3.30
2019-01-02T02:01:06.030Z,3.30
2019-01-02T02:02:06.024Z,2.70
2019-01-02T02:03:06.023Z,3.20
2019-01-02T02:04:06.022Z,2.90
2019-01-02T02:05:05.987Z,2.60
2019-01-02T02:06:05.977Z,2.70
2019-01-02T02:07:05.968Z,3.00
2019-01-02T02:08:05.959Z,2.60
2019-01-02T02:09:05.971Z,2.80
2019-01-02T02:10:05.932Z,2.40
2019-01-02T02:11:05.922Z,2.60
2019-01-02T02:12:05.912Z,2.60
2019-01-02T02:13:05.900Z,3.20
2019-01-02T02:14:05.912Z,2.80
2019-01-02T02:15:05.910Z,2.40
2019-01-02T02:16:05.870Z,3.00
2019-01-02T02:17:05.858Z,3.10
2019-01-02T02:18:05.844Z,3.00
2019-01-02T02:19:05.858Z,3.20
2019-01-02T02:20:05.825Z,3.40
2019-01-02T02:21:05.828Z,3.00
2019-01-02T02:22:05.802Z,2.50
2019-01-02T02:23:05.792Z,2.50
2019-01-02T02:24:05.809Z,2.50
2019-01-02T02:25:05.770Z,2.40
2019-01-02T02:26:05.762Z,3.10
2019-01-02T02:27:05.762Z,3.00
2019-01-02T02:28:05.739Z,2.70
2019-01-02T02:29:05.752Z,2.90
2019-01-02T02:30:05.716Z,2.90
2019-01-02T02:31:05.703Z,2.80
2019-01-02T02:32:05.695Z,2.10
2019-01-02T02:33:05.698Z,2.50
2019-01-02T02:34:05.696Z,2.40
2019-01-02T02:35:05.660Z,3.00
2019-01-02T02:36:05.664Z,3.20
2019-01-02T02:37:05.639Z,3.00
2019-01-02T02:38:05.627Z,3.10
2019-01-02T02:39:05.677Z,3.00
2019-01-02T02:40:05.605Z,2.40
2019-01-02T02:41:05.601Z,2.50
2019-01-02T02:42:05.595Z,2.90
2019-01-02T02:43:05.579Z,3.30
2019-01-02T02:44:05.602Z,2.80
2019-01-02T02:45:05.560Z,3.00
2019-01-02T02:46:05.562Z,3.10
2019-01-02T02:47:05.535Z,1.70
2019-01-02T02:48:05.520Z,2.60
2019-01-02T02:49:05.534Z,3.00
2019-01-02T02:50:05.496Z,3.20
2019-01-02T02:51:05.486Z,3.10
2019-01-02T02:52:05.485Z,3.00
2019-01-02T02:53:05.464Z,2.90
2019-01-02T02:54:05.492Z,3.00
2019-01-02T02:55:05.442Z,2.80
2019-01-02T02:56:05.433Z,2.20
2019-01-02T02:57:05.418Z,3.30
2019-01-02T02:58:05.441Z,2.50
2019-01-02T02:59:05.399Z,2.30
2019-01-02T03:00:05.411Z,3.00
2019-01-02T03:01:05.383Z,2.50
2019-01-02T03:02:05.366Z,2.80
2019-01-02T03:03:05.358Z,2.70
2019-01-02T03:04:05.361Z,2.40
2019-01-02T03:05:05.362Z,2.30
2019-01-02T03:06:05.323Z,3.10
2019-01-02T03:07:05.313Z,2.60
2019-01-02T03:08:05.298Z,3.00
2019-01-02T03:09:05.291Z,2.50
2019-01-02T03:10:05.302Z,2.40
2019-01-02T03:11:05.275Z,2.90
2019-01-02T03:12:05.257Z,2.30
2019-01-02T03:13:05.245Z,2.60
2019-01-02T03:14:05.238Z,2.20
2019-01-02T03:15:05.245Z,2.80
2019-01-02T03:16:05.213Z,2.30
2019-01-02T03:17:05.215Z,2.50
2019-01-02T03:18:05.193Z,2.20
2019-01-02T03:19:05.180Z,3.40
2019-01-02T03:20:05.192Z,3.40
2019-01-02T03:21:05.157Z,2.40
2019-01-02T03:22:05.146Z,2.20
2019-01-02T03:23:05.151Z,2.40
2019-01-02T03:24:05.131Z,3.00
2019-01-02T03:25:05.137Z,2.60
2019-01-02T03:26:05.101Z,2.40
2019-01-02T03:27:05.095Z,2.40
2019-01-02T03:28:05.085Z,2.20
2019-01-02T03:29:05.078Z,2.80
2019-01-02T03:30:05.087Z,2.70
2019-01-02T03:31:05.050Z,2.10
2019-01-02T03:32:05.042Z,2.40
2019-01-02T03:33:05.025Z,1.50
2019-01-02T03:34:05.015Z,2.70
2019-01-02T03:35:05.052Z,2.50
2019-01-02T03:36:04.993Z,2.80
2019-01-02T03:37:04.982Z,2.40
2019-01-02T03:38:04.972Z,2.30
2019-01-02T03:39:04.962Z,3.00
2019-01-02T03:40:04.978Z,2.80
2019-01-02T03:41:04.944Z,2.20
2019-01-02T03:42:04.932Z,2.10
2019-01-02T03:43:04.918Z,2.20
2019-01-02T03:44:04.907Z,3.00
2019-01-02T03:45:04.930Z,3.10
2019-01-02T03:46:04.902Z,2.30
2019-01-02T03:47:04.874Z,2.80
2019-01-02T03:48:04.864Z,2.60
2019-01-02T03:49:04.851Z,2.40
2019-01-02T03:50:04.842Z,3.30
2019-01-02T03:51:04.855Z,2.70
2019-01-02T03:52:04.827Z,2.10
2019-01-02T03:53:04.819Z,3.20
2019-01-02T03:54:04.799Z,2.50
2019-01-02T03:55:04.787Z,2.90
2019-01-02T03:56:04.804Z,2.50
2019-01-02T03:57:04.764Z,2.70
2019-01-02T03:58:04.756Z,3.00
2019-01-02T03:59:04.753Z,3.30
2019-01-02T04:00:04.732Z,3.10
2019-01-02T04:01:04.747Z,3.70
2019-01-02T04:02:04.712Z,3.00
2019-01-02T04:03:04.707Z,2.90
2019-01-02T04:04:04.689Z,2.80
2019-01-02T04:05:04.693Z,3.40
2019-01-02T04:06:04.694Z,2.70
2019-01-02T04:07:04.661Z,2.50
2019-01-02T04:08:04.645Z,2.80
2019-01-02T04:09:04.634Z,2.50
2019-01-02T04:10:04.624Z,2.70
2019-01-02T04:11:04.654Z,2.90
2019-01-02T04:12:04.604Z,3.00
2019-01-02T04:13:04.607Z,2.70
2019-01-02T04:14:04.583Z,2.80
2019-01-02T04:15:04.571Z,3.00
2019-01-02T04:16:04.585Z,3.10
2019-01-02T04:17:04.564Z,2.90
2019-01-02T04:18:04.538Z,3.10
2019-01-02T04:19:04.530Z,3.20
2019-01-02T04:20:04.517Z,2.70
2019-01-02T04:21:04.534Z,2.40
2019-01-02T04:22:04.494Z,2.50
2019-01-02T04:23:04.488Z,2.70
2019-01-02T04:24:04.472Z,2.20
2019-01-02T04:25:04.461Z,3.10
2019-01-02T04:26:04.475Z,2.10
2019-01-02T04:27:04.440Z,2.50
2019-01-02T04:28:04.427Z,3.10
2019-01-02T04:29:04.428Z,2.60
2019-01-02T04:30:04.410Z,2.90
2019-01-02T04:31:04.434Z,2.70
2019-01-02T04:32:04.390Z,2.80
2019-01-02T04:33:04.373Z,3.20
2019-01-02T04:34:04.368Z,2.80
2019-01-02T04:35:04.363Z,3.20
2019-01-02T04:36:04.345Z,2.90
2019-01-02T04:37:04.355Z,3.00
2019-01-02T04:38:04.321Z,2.90
2019-01-02T04:39:04.312Z,3.10
2019-01-02T04:40:04.298Z,3.40
2019-01-02T04:41:04.313Z,3.50
2019-01-02T04:42:04.300Z,2.80
2019-01-02T04:43:04.269Z,2.80
2019-01-02T04:44:04.259Z,3.70
2019-01-02T04:45:04.243Z,3.40
2019-01-02T04:46:04.233Z,2.20
2019-01-02T04:47:04.266Z,3.40
2019-01-02T04:48:04.210Z,3.30
2019-01-02T04:49:04.227Z,3.00
2019-01-02T04:50:04.191Z,3.40
2019-01-02T04:51:04.180Z,3.90
2019-01-02T04:52:04.205Z,4.00
2019-01-02T04:53:04.178Z,3.80
2019-01-02T04:54:04.147Z,2.50
2019-01-02T04:55:04.137Z,3.50
2019-01-02T04:56:04.124Z,2.60
2019-01-02T04:57:04.116Z,2.70
2019-01-02T04:58:04.136Z,3.70
2019-01-02T04:59:04.120Z,4.00
2019-01-02T05:00:04.080Z,3.50
2019-01-02T05:01:04.093Z,3.60
2019-01-02T05:02:04.062Z,3.40
2019-01-02T05:03:04.070Z,3.00
2019-01-02T05:04:04.038Z,3.20
2019-01-02T05:05:04.034Z,2.90
2019-01-02T05:06:04.018Z,3.50
2019-01-02T05:07:04.006Z,3.30
2019-01-02T05:08:04.018Z,2.80
2019-01-02T05:09:03.982Z,2.90
2019-01-02T05:10:03.971Z,3.30
2019-01-02T05:11:03.984Z,3.10
2019-01-02T05:12:03.951Z,2.80
2019-01-02T05:13:03.964Z,2.80
2019-01-02T05:14:03.928Z,2.50
2019-01-02T05:15:03.917Z,4.00
2019-01-02T05:16:03.924Z,2.20
2019-01-02T05:17:03.896Z,3.40
2019-01-02T05:18:03.909Z,3.50
2019-01-02T05:19:03.873Z,3.30
2019-01-02T05:20:03.862Z,3.10
2019-01-02T05:21:03.851Z,2.60
2019-01-02T05:22:03.848Z,3.30
2019-01-02T05:23:03.877Z,2.70
2019-01-02T05:24:03.832Z,2.90
2019-01-02T05:25:03.811Z,3.00
2019-01-02T05:26:03.801Z,2.90
2019-01-02T05:27:03.788Z,3.10
2019-01-02T05:28:03.791Z,3.50
2019-01-02T05:29:03.787Z,2.80
2019-01-02T05:30:03.753Z,3.40
2019-01-02T05:31:03.743Z,3.50
2019-01-02T05:32:03.734Z,3.30
2019-01-02T05:33:03.720Z,3.40
2019-01-02T05:34:03.741Z,3.00
2019-01-02T05:35:03.699Z,3.50
2019-01-02T05:36:03.690Z,3.50
2019-01-02T05:37:03.678Z,3.70
2019-01-02T05:38:03.666Z,3.20
2019-01-02T05:39:03.681Z,3.70
2019-01-02T05:40:03.661Z,3.90
2019-01-02T05:41:03.639Z,3.10
2019-01-02T05:42:03.627Z,3.40
2019-01-02T05:43:03.616Z,3.10
2019-01-02T05:44:03.624Z,3.50
2019-01-02T05:45:03.588Z,3.60
2019-01-02T05:46:03.588Z,3.10
2019-01-02T05:47:03.571Z,3.10
2019-01-02T05:48:03.557Z,3.20
2019-01-02T05:49:03.579Z,3.20
2019-01-02T05:50:03.539Z,3.00
2019-01-02T05:51:03.527Z,3.10
2019-01-02T05:52:03.535Z,3.30
2019-01-02T05:53:03.507Z,2.80
2019-01-02T05:54:03.493Z,3.70
2019-01-02T05:55:03.504Z,3.00
2019-01-02T05:56:03.471Z,3.20
2019-01-02T05:57:03.460Z,3.20
2019-01-02T05:58:03.477Z,3.20
2019-01-02T05:59:03.438Z,3.20
2019-01-02T06:00:03.452Z,3.50
2019-01-02T06:01:03.418Z,3.50
2019-01-02T06:02:03.408Z,3.10
2019-01-02T06:03:03.395Z,3.50
2019-01-02T06:04:03.400Z,2.70
2019-01-02T06:05:03.405Z,2.90
2019-01-02T06:06:03.370Z,3.30
2019-01-02T06:07:03.351Z,2.80
2019-01-02T06:08:03.339Z,2.50
2019-01-02T06:09:03.330Z,2.80
2019-01-02T06:10:03.325Z,3.60
2019-01-02T06:11:03.331Z,3.10
2019-01-02T06:12:03.303Z,2.90
2019-01-02T06:13:03.286Z,3.50
2019-01-02T06:14:03.276Z,4.50
2019-01-02T06:15:03.263Z,3.30
2019-01-02T06:16:03.283Z,3.80
2019-01-02T06:17:03.241Z,3.70
2019-01-02T06:18:03.239Z,2.80
2019-01-02T06:19:03.217Z,3.60
2019-01-02T06:20:03.207Z,3.10
2019-01-02T06:21:03.221Z,3.50
2019-01-02T06:22:03.209Z,3.30
2019-01-02T06:23:03.176Z,3.50
2019-01-02T06:24:03.163Z,3.20
2019-01-02T06:25:03.175Z,3.90
2019-01-02T06:26:03.181Z,4.50
2019-01-02T06:27:03.133Z,4.10
2019-01-02T06:28:03.123Z,3.70
2019-01-02T06:29:03.124Z,2.90
2019-01-02T06:30:03.098Z,3.40
2019-01-02T06:31:03.090Z,3.90
2019-01-02T06:32:03.111Z,3.70
2019-01-02T06:33:03.070Z,3.10
2019-01-02T06:34:03.056Z,3.90
2019-01-02T06:35:03.055Z,3.30
2019-01-02T06:36:03.032Z,3.70
2019-01-02T06:37:03.045Z,3.10
2019-01-02T06:38:03.013Z,3.70
2019-01-02T06:39:03.000Z,3.10
2019-01-02T06:40:02.989Z,3.00
2019-01-02T06:41:02.999Z,3.70
2019-01-02T06:42:02.992Z,3.80
2019-01-02T06:43:02.964Z,3.70
2019-01-02T06:44:02.947Z,3.40
2019-01-02T06:45:02.936Z,3.20
2019-01-02T06:46:02.925Z,3.80
2019-01-02T06:47:02.976Z,3.60
2019-01-02T06:48:02.902Z,3.70
2019-01-02T06:49:02.894Z,3.90
2019-01-02T06:50:02.882Z,3.90
2019-01-02T06:51:02.870Z,3.10
2019-01-02T06:52:02.861Z,4.50
2019-01-02T06:53:02.903Z,4.50
2019-01-02T06:54:02.861Z,4.40
2019-01-02T06:55:02.844Z,3.70
2019-01-02T06:56:02.846Z,3.90
2019-01-02T06:57:02.804Z,4.10
2019-01-02T06:58:02.829Z,4.10
2019-01-02T06:59:02.809Z,4.20
2019-01-02T07:00:02.774Z,3.70
2019-01-02T07:01:02.810Z,4.90
2019-01-02T07:02:02.753Z,4.10
2019-01-02T07:03:02.894Z,4.40
2019-01-02T07:04:02.728Z,4.50
2019-01-02T07:05:02.728Z,4.80
2019-01-02T07:06:02.706Z,3.90
2019-01-02T07:07:02.699Z,4.00
2019-01-02T07:08:02.706Z,4.00
2019-01-02T07:09:02.677Z,4.60
2019-01-02T07:10:02.668Z,3.80
2019-01-02T07:11:02.662Z,5.00
2019-01-02T07:12:02.661Z,4.20
2019-01-02T07:13:02.669Z,4.60
2019-01-02T07:14:02.629Z,3.80
2019-01-02T07:15:02.609Z,4.50
2019-01-02T07:16:02.602Z,4.00
2019-01-02T07:17:02.588Z,4.60
2019-01-02T07:18:02.585Z,4.30
2019-01-02T07:19:02.596Z,3.60
2019-01-02T07:20:02.556Z,4.50
2019-01-02T07:21:02.544Z,4.50
2019-01-02T07:22:02.546Z,4.00
2019-01-02T07:23:02.522Z,4.00
2019-01-02T07:24:02.541Z,4.30
2019-01-02T07:25:02.499Z,4.40
2019-01-02T07:26:02.490Z,4.80
2019-01-02T07:27:02.477Z,4.00
2019-01-02T07:28:02.469Z,4.90
2019-01-02T07:29:02.476Z,4.00
2019-01-02T07:30:02.458Z,4.40
2019-01-02T07:31:02.435Z,4.30
2019-01-02T07:32:02.430Z,3.90
2019-01-02T07:33:02.419Z,4.00
2019-01-02T07:34:02.424Z,4.40
2019-01-02T07:35:02.396Z,3.90
2019-01-02T07:36:02.386Z,4.10
2019-01-02T07:37:02.372Z,3.80
2019-01-02T07:38:02.362Z,4.00
2019-01-02T07:39:02.372Z,4.60
2019-01-02T07:40:02.338Z,4.10
2019-01-02T07:41:02.326Z,4.40
2019-01-02T07:42:02.329Z,4.10
2019-01-02T07:43:02.303Z,3.50
2019-01-02T07:44:02.330Z,3.70
2019-01-02T07:45:02.290Z,4.20
2019-01-02T07:46:02.275Z,3.30
2019-01-02T07:47:02.259Z,3.70
2019-01-02T07:48:02.271Z,4.30
2019-01-02T07:49:02.241Z,3.40
2019-01-02T07:50:02.253Z,4.60
2019-01-02T07:51:02.245Z,3.90
2019-01-02T07:52:02.211Z,3.80
2019-01-02T07:53:02.198Z,3.40
2019-01-02T07:54:02.193Z,3.40
2019-01-02T07:55:02.204Z,3.70
2019-01-02T07:56:02.165Z,3.10
2019-01-02T07:57:02.152Z,3.60
2019-01-02T07:58:02.148Z,3.70
2019-01-02T07:59:02.138Z,3.40
2019-01-02T08:00:02.164Z,3.70
2019-01-02T08:01:02.110Z,4.10
2019-01-02T08:02:02.108Z,3.20
2019-01-02T08:03:02.086Z,3.60
2019-01-02T08:04:02.083Z,3.70
2019-01-02T08:05:02.092Z,3.90
2019-01-02T08:06:02.070Z,2.70
2019-01-02T08:07:02.043Z,3.80
2019-01-02T08:08:02.038Z,3.40
2019-01-02T08:09:02.021Z,4.50
2019-01-02T08:10:02.033Z,3.60
2019-01-02T08:11:02.000Z,3.60
2019-01-02T08:12:02.002Z,3.60
2019-01-02T08:13:01.986Z,3.60
2019-01-02T08:14:01.966Z,4.80
2019-01-02T08:15:03.236Z,4.30
2019-01-02T08:16:01.944Z,5.20
2019-01-02T08:17:01.992Z,4.90
2019-01-02T08:18:01.925Z,4.40
2019-01-02T08:19:01.911Z,4.60
2019-01-02T08:20:01.943Z,4.80
2019-01-02T08:21:01.890Z,4.40
2019-01-02T08:22:01.880Z,4.00
2019-01-02T08:23:01.868Z,4.10
2019-01-02T08:24:01.872Z,4.60
2019-01-02T08:25:01.847Z,4.30
2019-01-02T08:26:01.864Z,4.80
2019-01-02T08:27:01.824Z,5.20
2019-01-02T08:28:01.813Z,5.00
2019-01-02T08:29:01.820Z,5.00
2019-01-02T08:30:01.803Z,3.60
2019-01-02T08:31:01.806Z,4.60
2019-01-02T08:32:01.772Z,4.10
2019-01-02T08:33:01.759Z,4.60
2019-01-02T08:34:01.747Z,4.10
2019-01-02T08:35:01.736Z,4.70
2019-01-02T08:36:01.762Z,4.50
2019-01-02T08:37:01.715Z,5.00
2019-01-02T08:38:01.704Z,3.60
2019-01-02T08:39:01.693Z,4.20
2019-01-02T08:40:01.683Z,4.80
2019-01-02T08:41:01.705Z,4.70
2019-01-02T08:42:01.673Z,4.50
2019-01-02T08:43:01.649Z,4.60
2019-01-02T08:44:01.638Z,5.40
2019-01-02T08:45:01.638Z,5.00
2019-01-02T08:46:01.618Z,4.70
2019-01-02T08:47:01.628Z,4.90
2019-01-02T08:48:01.601Z,4.90
2019-01-02T08:49:01.584Z,4.50
2019-01-02T08:50:02.336Z,4.60
2019-01-02T08:51:01.562Z,5.10
2019-01-02T08:52:01.581Z,5.10
2019-01-02T08:53:01.541Z,5.10
2019-01-02T08:54:01.531Z,4.50
2019-01-02T08:55:01.522Z,4.60
2019-01-02T08:56:01.505Z,4.90
2019-01-02T08:57:01.518Z,5.00
2019-01-02T08:58:01.483Z,5.20
2019-01-02T08:59:01.473Z,4.60
2019-01-02T09:00:01.467Z,4.50
2019-01-02T09:01:01.454Z,4.20
2019-01-02T09:02:01.467Z,3.60
2019-01-02T09:03:01.429Z,5.40
2019-01-02T09:04:01.420Z,4.50
2019-01-02T09:05:01.406Z,4.90
2019-01-02T09:06:01.418Z,5.50
2019-01-02T09:07:01.415Z,5.20
2019-01-02T09:08:01.374Z,5.50
2019-01-02T09:09:01.363Z,4.70
2019-01-02T09:10:01.354Z,4.80
2019-01-02T09:11:01.340Z,5.10
2019-01-02T09:12:01.380Z,5.20
2019-01-02T09:13:01.330Z,5.00
2019-01-02T09:14:01.311Z,5.00
2019-01-02T09:15:01.297Z,5.30
2019-01-02T09:16:01.285Z,4.80
2019-01-02T09:17:01.275Z,4.90
2019-01-02T09:18:01.310Z,3.80
2019-01-02T09:19:01.253Z,4.50
2019-01-02T09:20:01.242Z,4.30
2019-01-02T09:21:01.232Z,4.60
2019-01-02T09:22:01.217Z,4.30
2019-01-02T09:23:01.230Z,5.00
2019-01-02T09:24:01.200Z,4.60
2019-01-02T09:25:01.198Z,4.70
2019-01-02T09:26:01.173Z,5.10
2019-01-02T09:27:01.162Z,4.30
2019-01-02T09:28:01.187Z,4.30
2019-01-02T09:29:01.142Z,5.20
2019-01-02T09:30:01.129Z,4.10
2019-01-02T09:31:01.126Z,4.00
2019-01-02T09:32:01.107Z,3.80
2019-01-02T09:33:01.095Z,4.40
2019-01-02T09:34:01.119Z,4.30
2019-01-02T09:35:01.075Z,3.60
2019-01-02T09:36:01.061Z,4.50
2019-01-02T09:37:01.068Z,4.50
2019-01-02T09:38:01.041Z,4.70
2019-01-02T09:39:01.051Z,3.80
2019-01-02T09:40:01.018Z,4.40
2019-01-02T09:41:01.011Z,3.70
2019-01-02T09:42:01.001Z,4.40
2019-01-02T09:43:01.011Z,3.70
2019-01-02T09:44:00.997Z,3.60
2019-01-02T09:45:00.962Z,3.90
2019-01-02T09:46:00.951Z,4.20
2019-01-02T09:47:00.939Z,3.90
2019-01-02T09:48:00.992Z,4.00
2019-01-02T09:49:00.951Z,4.50
2019-01-02T09:50:00.926Z,3.30
2019-01-02T09:51:00.897Z,4.00
2019-01-02T09:52:00.884Z,3.20
2019-01-02T09:53:00.887Z,3.20
2019-01-02T09:54:00.897Z,3.70
2019-01-02T09:55:01.596Z,3.30
2019-01-02T09:56:00.842Z,3.40
2019-01-02T09:57:00.829Z,3.20
2019-01-02T09:58:00.816Z,3.40
2019-01-02T09:59:00.806Z,3.10
2019-01-02T10:00:00.828Z,3.10
2019-01-02T10:01:00.795Z,3.30
2019-01-02T10:02:00.772Z,3.40
2019-01-02T10:03:00.760Z,2.70
2019-01-02T10:04:00.752Z,2.70
2019-01-02T10:05:00.763Z,2.30
2019-01-02T10:06:00.736Z,3.10
2019-01-02T10:07:00.730Z,2.80
2019-01-02T10:08:00.711Z,2.90
2019-01-02T10:09:00.696Z,3.00
2019-01-02T10:10:00.708Z,3.00
2019-01-02T10:11:00.672Z,2.70
2019-01-02T10:12:00.667Z,3.30
2019-01-02T10:13:00.665Z,2.90
2019-01-02T10:14:00.641Z,3.40
2019-01-02T10:15:00.667Z,3.20
2019-01-02T10:16:00.619Z,3.40
2019-01-02T10:17:00.605Z,3.00
2019-01-02T10:18:00.607Z,2.30
2019-01-02T10:19:00.586Z,2.60
2019-01-02T10:20:00.574Z,3.30
2019-01-02T10:21:00.586Z,2.90
2019-01-02T10:22:00.550Z,2.80
2019-01-02T10:23:00.540Z,3.20
2019-01-02T10:24:00.599Z,3.30
2019-01-02T10:25:00.530Z,2.70
2019-01-02T10:26:00.529Z,2.50
2019-01-02T10:27:00.497Z,1.70
2019-01-02T10:28:00.484Z,2.60
2019-01-02T10:29:00.474Z,2.80
2019-01-02T10:30:00.462Z,2.90
2019-01-02T10:31:00.515Z,3.50
2019-01-02T10:32:00.441Z,3.50
2019-01-02T10:33:00.430Z,3.40
2019-01-02T10:34:00.418Z,3.60
2019-01-02T10:35:00.408Z,3.30
2019-01-02T10:36:00.413Z,3.10
2019-01-02T10:37:00.436Z,2.70
2019-01-02T10:38:00.374Z,3.20
2019-01-02T10:39:00.383Z,2.60
2019-01-02T10:40:00.351Z,3.10
2019-01-02T10:41:00.341Z,3.20
2019-01-02T10:42:00.356Z,3.10
2019-01-02T10:43:00.333Z,2.40
2019-01-02T10:44:00.307Z,1.90
2019-01-02T10:45:00.303Z,2.70
2019-01-02T10:46:00.327Z,2.40
2019-01-02T10:47:00.297Z,2.60
2019-01-02T10:48:00.263Z,3.30
2019-01-02T10:49:00.263Z,2.40
2019-01-02T10:50:00.257Z,2.60
2019-01-02T10:51:00.236Z,2.70
2019-01-02T10:52:00.254Z,3.20
2019-01-02T10:53:00.207Z,3.20
2019-01-02T10:54:00.195Z,3.70
2019-01-02T10:55:00.190Z,2.40
2019-01-02T10:56:00.181Z,3.40
2019-01-02T10:57:00.185Z,2.80
2019-01-02T10:58:00.152Z,3.00
2019-01-02T10:59:00.140Z,3.00
2019-01-02T11:00:00.165Z,3.60
2019-01-02T11:01:00.138Z,2.40
2019-01-02T11:02:00.157Z,3.00
2019-01-02T11:03:00.097Z,3.10
2019-01-02T11:04:00.084Z,3.60
2019-01-02T11:05:00.120Z,2.90
2019-01-02T11:06:00.063Z,3.00
2019-01-02T11:07:00.059Z,2.60
2019-01-02T11:08:00.063Z,2.90
2019-01-02T11:09:00.030Z,2.90
2019-01-02T11:10:00.020Z,3.60
2019-01-02T11:11:00.011Z,2.60
2019-01-02T11:11:59.997Z,3.00
2019-01-02T11:13:00.016Z,2.90
2019-01-02T11:13:59.981Z,3.20
2019-01-02T11:14:59.965Z,3.00
2019-01-02T11:15:59.952Z,3.10
2019-01-02T11:16:59.948Z,3.40
2019-01-02T11:17:59.954Z,2.90
2019-01-02T11:18:59.919Z,3.20
2019-01-02T11:19:59.907Z,2.40
2019-01-02T11:20:59.911Z,3.40
2019-01-02T11:21:59.894Z,3.10
2019-01-02T11:22:59.930Z,3.00
2019-01-02T11:23:59.886Z,2.90
2019-01-02T11:24:59.854Z,2.20
2019-01-02T11:25:59.842Z,3.00
2019-01-02T11:26:59.830Z,3.40
2019-01-02T11:27:59.824Z,3.30
2019-01-02T11:28:59.833Z,2.90
2019-01-02T11:29:59.821Z,2.30
2019-01-02T11:30:59.792Z,3.10
2019-01-02T11:31:59.775Z,3.40
2019-01-02T11:32:59.766Z,3.30
2019-01-02T11:33:59.781Z,3.50
2019-01-02T11:34:59.743Z,2.60
2019-01-02T11:35:59.739Z,2.60
2019-01-02T11:36:59.726Z,2.40
2019-01-02T11:37:59.725Z,2.00
2019-01-02T11:38:59.726Z,2.70
2019-01-02T11:39:59.704Z,2.40
2019-01-02T11:40:59.676Z,2.00
2019-01-02T11:41:59.661Z,2.10
2019-01-02T11:42:59.658Z,2.30
2019-01-02T11:43:59.663Z,2.30
2019-01-02T11:44:59.631Z,2.40
2019-01-02T11:45:59.617Z,2.10
2019-01-02T11:46:59.613Z,2.30
2019-01-02T11:47:59.609Z,2.30
2019-01-02T11:48:59.621Z,1.40
2019-01-02T11:49:59.574Z,1.90
2019-01-02T11:50:59.564Z,2.70
2019-01-02T11:51:59.554Z,2.00
2019-01-02T11:52:59.539Z,1.40
2019-01-02T11:53:59.611Z,1.90
2019-01-02T11:54:59.521Z,2.00
2019-01-02T11:55:59.506Z,2.50
2019-01-02T11:56:59.493Z,2.40
2019-01-02T11:57:59.485Z,2.50
2019-01-02T11:58:59.495Z,1.70
2019-01-02T11:59:59.461Z,2.10
2019-01-02T12:00:59.458Z,2.10
2019-01-02T12:01:59.440Z,2.20
2019-01-02T12:02:59.427Z,2.30
2019-01-02T12:03:59.439Z,2.80
2019-01-02T12:04:59.409Z,1.40
2019-01-02T12:05:59.394Z,1.60
2019-01-02T12:06:59.410Z,1.90
2019-01-02T12:07:59.374Z,2.00
2019-01-02T12:08:59.396Z,2.40
2019-01-02T12:09:59.349Z,1.90
2019-01-02T12:10:59.339Z,1.60
2019-01-02T12:11:59.327Z,2.30
2019-01-02T12:12:59.319Z,1.70
2019-01-02T12:13:59.307Z,2.00
2019-01-02T12:14:59.318Z,2.40
2019-01-02T12:15:59.285Z,1.60
2019-01-02T12:16:59.272Z,2.20
2019-01-02T12:17:59.262Z,1.50
2019-01-02T12:18:59.253Z,1.50
2019-01-02T12:19:59.267Z,2.10
2019-01-02T12:20:59.228Z,1.80
2019-01-02T12:21:59.216Z,2.40
2019-01-02T12:22:59.204Z,2.00
2019-01-02T12:23:59.195Z,2.10
2019-01-02T12:24:59.211Z,2.50
2019-01-02T12:25:59.170Z,2.20
2019-01-02T12:26:59.161Z,2.50
2019-01-02T12:27:59.149Z,2.40
2019-01-02T12:28:59.136Z,1.80
2019-01-02T12:29:59.151Z,2.10
2019-01-02T12:30:59.122Z,2.80
2019-01-02T12:31:59.103Z,1.90
2019-01-02T12:32:59.093Z,1.40
2019-01-02T12:33:59.084Z,2.10
2019-01-02T12:34:59.104Z,2.00
2019-01-02T12:35:59.060Z,2.10
2019-01-02T12:36:59.062Z,1.80
2019-01-02T12:37:59.044Z,1.60
2019-01-02T12:38:59.026Z,2.10
2019-01-02T12:39:59.016Z,1.60
2019-01-02T12:40:59.035Z,1.60
2019-01-02T12:41:58.996Z,1.60
2019-01-02T12:42:58.992Z,2.00
2019-01-02T12:43:58.969Z,1.80
2019-01-02T12:44:58.959Z,2.00
2019-01-02T12:45:58.971Z,1.90
2019-01-02T12:46:58.937Z,1.80
2019-01-02T12:47:58.932Z,1.50
2019-01-02T12:48:58.920Z,1.90
2019-01-02T12:49:58.906Z,2.30
2019-01-02T12:50:58.916Z,1.60
2019-01-02T12:51:58.882Z,2.00
2019-01-02T12:52:58.873Z,2.00
2019-01-02T12:53:58.862Z,1.80
2019-01-02T12:54:58.886Z,2.10
2019-01-02T12:55:58.864Z,1.90
2019-01-02T12:56:58.826Z,2.40
2019-01-02T12:57:58.816Z,1.90
2019-01-02T12:58:58.805Z,1.60
2019-01-02T12:59:58.792Z,1.30
2019-01-02T13:00:58.834Z,1.50
2019-01-02T13:01:58.774Z,1.20
2019-01-02T13:02:58.763Z,1.70
2019-01-02T13:03:58.747Z,1.40
2019-01-02T13:04:58.745Z,2.10
2019-01-02T13:05:59.018Z,1.10
2019-01-02T13:06:58.733Z,1.90
2019-01-02T13:07:58.703Z,1.70
2019-01-02T13:08:58.693Z,1.10
2019-01-02T13:09:58.683Z,1.90
2019-01-02T13:10:58.671Z,1.40
2019-01-02T13:11:58.713Z,1.60
2019-01-02T13:12:58.662Z,1.40
2019-01-02T13:13:58.639Z,1.30
2019-01-02T13:14:58.626Z,1.50
2019-01-02T13:15:58.617Z,1.50
2019-01-02T13:16:58.628Z,1.50
2019-01-02T13:17:58.594Z,1.50